createdAt,value
2019-01-12T00:01:30.612Z,405.03
2019-01-12T00:04:26.931Z,398.57
2019-01-12T00:07:22.785Z,399.98
2019-01-12T00:10:18.786Z,414.03
2019-01-12T00:13:14.956Z,423.47
2019-01-12T00:16:11.393Z,412.15
2019-01-12T00:19:07.818Z,410.90
2019-01-12T00:22:03.772Z,412.12
2019-01-12T00:24:59.730Z,432.12
2019-01-12T00:27:56.014Z,422.45
2019-01-12T00:30:51.776Z,427.97
2019-01-12T00:33:47.861Z,457.62
2019-01-12T00:36:43.493Z,459.93
2019-01-12T00:39:39.878Z,499.98
2019-01-12T00:42:36.324Z,519.62
2019-01-12T00:45:33.301Z,525.42
2019-01-12T00:48:30.032Z,538.87
2019-01-12T00:51:26.825Z,560.33
2019-01-12T00:54:23.558Z,546.92
2019-01-12T00:57:19.799Z,542.30
2019-01-12T01:00:19.795Z,517.63
2019-01-12T01:03:16.399Z,531.95
2019-01-12T01:06:12.767Z,517.83
2019-01-12T01:09:11.146Z,541.08
2019-01-12T01:12:07.338Z,529.97
2019-01-12T01:15:04.455Z,534.75
2019-01-12T01:18:00.748Z,546.48
2019-01-12T01:20:56.718Z,569.67
2019-01-12T01:23:53.514Z,584.87
2019-01-12T01:26:49.626Z,619.30
2019-01-12T01:29:45.927Z,633.33
2019-01-12T01:32:41.791Z,643.15
2019-01-12T01:35:37.933Z,657.60
2019-01-12T01:38:34.030Z,691.48
2019-01-12T01:41:30.405Z,716.52
2019-01-12T01:44:26.438Z,705.17
2019-01-12T01:47:22.422Z,725.25
2019-01-12T01:50:19.331Z,713.83
2019-01-12T01:53:16.022Z,715.33
2019-01-12T01:56:12.175Z,712.88
2019-01-12T01:59:08.522Z,688.20
2019-01-12T02:02:04.716Z,687.95
2019-01-12T02:05:00.769Z,684.30
2019-01-12T02:07:56.911Z,683.20
2019-01-12T02:10:52.866Z,671.37
2019-01-12T02:13:49.297Z,665.20
2019-01-12T02:16:45.432Z,629.53
2019-01-12T02:19:41.317Z,613.40
2019-01-12T02:22:37.803Z,596.12
2019-01-12T02:25:33.739Z,584.58
2019-01-12T02:28:30.068Z,549.85
2019-01-12T02:31:26.008Z,545.55
2019-01-12T02:34:22.659Z,567.63
2019-01-12T02:37:19.105Z,565.25
2019-01-12T02:40:16.196Z,570.42
2019-01-12T02:43:12.295Z,571.67
2019-01-12T02:46:08.305Z,607.27
2019-01-12T02:49:04.383Z,615.50
2019-01-12T02:52:01.379Z,587.88
2019-01-12T02:54:57.520Z,579.80
2019-01-12T02:57:54.155Z,547.27
2019-01-12T03:00:50.797Z,553.20
2019-01-12T03:03:47.333Z,523.60
2019-01-12T03:06:44.016Z,520.48
2019-01-12T03:09:40.618Z,519.95
2019-01-12T03:12:36.082Z,496.60
2019-01-12T03:15:32.658Z,484.77
2019-01-12T03:18:28.605Z,438.37
2019-01-12T03:21:25.246Z,419.30
2019-01-12T03:24:21.161Z,376.50
2019-01-12T03:27:17.599Z,376.50
2019-01-12T03:30:17.519Z,324.77
2019-01-12T03:33:14.310Z,333.85
2019-01-12T03:36:10.801Z,343.42
2019-01-12T03:39:08.191Z,339.02
2019-01-12T03:42:04.751Z,307.43
2019-01-12T03:45:02.010Z,301.73
2019-01-12T03:47:58.272Z,308.63
2019-01-12T03:50:54.075Z,304.93
2019-01-12T03:53:51.517Z,292.07
2019-01-12T03:56:48.310Z,297.65
2019-01-12T03:59:44.133Z,281.27
2019-01-12T04:02:40.792Z,284.20
2019-01-12T04:05:36.997Z,262.48
2019-01-12T04:08:33.311Z,270.23
2019-01-12T04:11:29.414Z,302.93
2019-01-12T04:14:25.283Z,276.42
2019-01-12T04:17:21.411Z,266.73
2019-01-12T04:20:19.683Z,272.90
2019-01-12T04:23:16.557Z,236.07
2019-01-12T04:26:12.887Z,238.10
2019-01-12T04:29:09.729Z,210.50
2019-01-12T04:32:05.740Z,206.20
2019-01-12T04:35:02.074Z,200.60
2019-01-12T04:37:57.915Z,205.45
2019-01-12T04:40:54.967Z,202.95
2019-01-12T04:43:51.287Z,181.10
2019-01-12T04:46:47.551Z,169.02
2019-01-12T04:49:44.411Z,194.13
2019-01-12T04:52:41.090Z,171.35
2019-01-12T04:55:41.628Z,184.65
2019-01-12T04:58:35.501Z,170.53
2019-01-12T05:01:31.221Z,181.50
2019-01-12T05:04:28.402Z,179.85
2019-01-12T05:07:24.451Z,178.50
2019-01-12T05:10:20.813Z,172.07
2019-01-12T05:13:17.704Z,192.22
2019-01-12T05:16:14.864Z,202.68
2019-01-12T05:19:12.226Z,191.50
2019-01-12T05:22:08.842Z,206.23
2019-01-12T05:25:08.451Z,207.12
2019-01-12T05:28:05.635Z,217.30
2019-01-12T05:31:02.574Z,222.70
2019-01-12T05:33:59.369Z,210.82
2019-01-12T05:36:56.780Z,210.15
2019-01-12T05:39:53.249Z,214.05
2019-01-12T05:42:50.164Z,215.07
2019-01-12T05:45:46.869Z,189.00
2019-01-12T05:48:43.961Z,195.82
2019-01-12T05:51:42.548Z,199.15
2019-01-12T05:54:40.270Z,192.62
2019-01-12T05:57:36.651Z,191.12
2019-01-12T06:00:34.013Z,180.00
2019-01-12T06:03:30.778Z,196.87
2019-01-12T06:06:27.589Z,189.80
2019-01-12T06:09:24.025Z,162.75
2019-01-12T06:12:20.981Z,165.32
2019-01-12T06:15:18.203Z,175.65
2019-01-12T06:18:16.001Z,173.65
2019-01-12T06:21:12.599Z,156.30
2019-01-12T06:24:10.781Z,157.18
2019-01-12T06:27:07.460Z,185.80
2019-01-12T06:30:04.720Z,169.15
2019-01-12T06:33:00.535Z,157.50
2019-01-12T06:35:56.465Z,138.32
2019-01-12T06:38:53.107Z,147.72
2019-01-12T06:41:49.539Z,149.40
2019-01-12T06:44:45.667Z,143.05
2019-01-12T06:47:41.787Z,142.82
2019-01-12T06:50:38.637Z,148.75
2019-01-12T06:53:35.806Z,144.37
2019-01-12T06:56:32.645Z,137.80
2019-01-12T06:59:28.677Z,145.72
2019-01-12T07:02:24.816Z,123.45
2019-01-12T07:05:21.238Z,121.67
2019-01-12T07:08:17.497Z,122.70
2019-01-12T07:11:13.804Z,121.28
2019-01-12T07:14:13.350Z,114.40
2019-01-12T07:17:09.452Z,119.70
2019-01-12T07:20:27.484Z,130.03
2019-01-12T07:23:24.029Z,120.28
2019-01-12T07:26:22.600Z,134.03
2019-01-12T07:29:19.961Z,116.42
2019-01-12T07:32:16.843Z,122.58
2019-01-12T07:35:13.133Z,125.00
2019-01-12T07:38:10.287Z,107.40
2019-01-12T07:41:06.520Z,110.32
2019-01-12T07:44:02.764Z,130.80
2019-01-12T07:46:59.185Z,120.75
2019-01-12T07:49:55.064Z,129.65
2019-01-12T07:52:51.905Z,115.25
2019-01-12T07:55:48.278Z,112.22
2019-01-12T07:58:44.335Z,123.20
2019-01-12T08:01:42.812Z,123.82
2019-01-12T08:04:37.316Z,106.58
2019-01-12T08:07:33.572Z,119.15
2019-01-12T08:10:31.413Z,100.22
2019-01-12T08:13:28.357Z,108.67
2019-01-12T08:16:25.347Z,108.47
2019-01-12T08:19:22.356Z,99.97
2019-01-12T08:22:19.409Z,120.00
2019-01-12T08:25:20.761Z,112.17
2019-01-12T08:28:17.646Z,121.00
2019-01-12T08:31:14.900Z,106.95
2019-01-12T08:34:10.793Z,122.62
2019-01-12T08:37:07.245Z,103.83
2019-01-12T08:40:02.963Z,114.72
2019-01-12T08:43:00.386Z,103.02
2019-01-12T08:45:56.843Z,98.12
2019-01-12T08:48:53.345Z,111.70
2019-01-12T08:51:49.907Z,127.00
2019-01-12T08:54:57.309Z,109.55
2019-01-12T08:57:53.195Z,100.22
2019-01-12T09:00:49.460Z,95.70
2019-01-12T09:03:45.285Z,99.97
2019-01-12T09:06:41.532Z,89.55
2019-01-12T09:09:37.627Z,94.28
2019-01-12T09:12:34.271Z,97.17
2019-01-12T09:15:31.447Z,101.07
2019-01-12T09:18:28.265Z,106.47
2019-01-12T09:21:24.984Z,93.62
2019-01-12T09:24:21.045Z,115.85
2019-01-12T09:27:17.435Z,100.80
2019-01-12T09:30:16.905Z,105.40
2019-01-12T09:33:13.500Z,100.38
2019-01-12T09:36:09.568Z,110.95
2019-01-12T09:39:06.412Z,112.97
2019-01-12T09:42:03.990Z,115.17
2019-01-12T09:45:00.717Z,104.43
2019-01-12T09:47:57.326Z,104.17
2019-01-12T09:50:52.921Z,88.67
2019-01-12T09:53:50.645Z,118.02
2019-01-12T09:56:51.752Z,103.72
2019-01-12T09:59:43.918Z,108.60
2019-01-12T10:02:40.250Z,109.15
2019-01-12T10:05:36.804Z,109.57
2019-01-12T10:08:33.649Z,110.20
2019-01-12T10:11:32.950Z,104.47
2019-01-12T10:14:30.000Z,105.10
2019-01-12T10:17:26.400Z,100.40
2019-01-12T10:20:24.614Z,98.72
2019-01-12T10:23:21.171Z,116.88
2019-01-12T10:26:17.255Z,125.22
2019-01-12T10:29:15.452Z,115.10
2019-01-12T10:32:11.822Z,116.82
2019-01-12T10:35:09.027Z,132.78
2019-01-12T10:38:06.261Z,129.42
2019-01-12T10:41:02.483Z,103.17
2019-01-12T10:44:00.679Z,103.07
2019-01-12T10:46:57.842Z,105.78
2019-01-12T10:49:54.209Z,96.50
2019-01-12T10:52:50.335Z,97.90
2019-01-12T10:55:47.246Z,100.97
2019-01-12T10:58:43.602Z,100.50
2019-01-12T11:01:40.594Z,105.12
2019-01-12T11:04:36.484Z,100.85
2019-01-12T11:07:32.693Z,94.77
2019-01-12T11:10:29.288Z,96.70
2019-01-12T11:13:26.296Z,92.70
2019-01-12T11:16:23.550Z,112.47
2019-01-12T11:19:20.365Z,99.87
2019-01-12T11:22:16.744Z,115.10
2019-01-12T11:25:14.114Z,107.95
2019-01-12T11:28:10.155Z,113.68
2019-01-12T11:31:06.454Z,131.87
2019-01-12T11:34:02.551Z,125.35
2019-01-12T11:36:58.327Z,121.92
2019-01-12T11:39:54.194Z,126.55
2019-01-12T11:42:51.185Z,135.60
2019-01-12T11:45:47.095Z,128.45
2019-01-12T11:48:43.632Z,145.38
2019-01-12T11:51:39.466Z,150.47
2019-01-12T11:54:36.016Z,147.80
2019-01-12T11:57:31.933Z,137.05
2019-01-12T12:00:30.759Z,144.90
2019-01-12T12:03:26.852Z,139.90
2019-01-12T12:06:23.400Z,152.57
2019-01-12T12:09:19.313Z,149.47
2019-01-12T12:12:15.539Z,155.05
2019-01-12T12:15:13.217Z,159.00
2019-01-12T12:18:09.601Z,147.53
2019-01-12T12:21:07.277Z,155.72
2019-01-12T12:24:03.469Z,165.12
2019-01-12T12:26:59.576Z,164.88
2019-01-12T12:29:56.143Z,153.80
2019-01-12T12:32:52.553Z,161.73
2019-01-12T12:35:48.909Z,177.40
2019-01-12T12:38:45.854Z,194.00
2019-01-12T12:41:42.055Z,192.40
2019-01-12T12:44:38.924Z,169.62
2019-01-12T12:47:35.230Z,193.78
2019-01-12T12:50:31.764Z,173.75
2019-01-12T12:53:27.981Z,203.67
2019-01-12T12:56:23.940Z,227.00
2019-01-12T12:59:20.408Z,222.78
2019-01-12T13:02:16.819Z,217.13
2019-01-12T13:05:14.175Z,232.35
2019-01-12T13:08:10.708Z,255.10
2019-01-12T13:11:07.461Z,250.90
2019-01-12T13:14:03.769Z,234.40
2019-01-12T13:17:01.061Z,230.05
2019-01-12T13:19:57.785Z,201.12
2019-01-12T13:22:53.897Z,208.90
2019-01-12T13:25:50.467Z,185.25
2019-01-12T13:28:46.776Z,195.50
2019-01-12T13:31:43.108Z,201.07
2019-01-12T13:34:40.641Z,207.27
2019-01-12T13:37:36.122Z,199.80
2019-01-12T13:40:33.865Z,251.07
2019-01-12T13:43:32.240Z,232.77
2019-01-12T13:46:28.889Z,299.67
2019-01-12T13:49:25.409Z,268.15
2019-01-12T13:52:24.397Z,280.60
2019-01-12T13:55:22.090Z,272.27
2019-01-12T13:58:18.734Z,281.00
2019-01-12T14:01:15.491Z,273.95
2019-01-12T14:04:12.134Z,290.70
2019-01-12T14:07:09.048Z,261.85
2019-01-12T14:10:05.700Z,273.30
2019-01-12T14:13:02.344Z,276.40
2019-01-12T14:15:58.682Z,320.85
2019-01-12T14:18:54.419Z,292.75
2019-01-12T14:21:50.207Z,282.95
2019-01-12T14:24:46.862Z,272.98
2019-01-12T14:27:43.192Z,272.60
2019-01-12T14:30:38.710Z,261.20
2019-01-12T14:33:34.716Z,274.25
2019-01-12T14:36:31.261Z,284.83
2019-01-12T14:39:27.795Z,277.00
2019-01-12T14:42:23.776Z,258.87
2019-01-12T14:45:25.873Z,259.07
2019-01-12T14:48:21.936Z,251.90
2019-01-12T14:51:23.128Z,222.15
2019-01-12T14:54:15.836Z,236.32
2019-01-12T14:57:11.719Z,238.70
2019-01-12T15:00:08.488Z,248.65
2019-01-12T15:03:05.249Z,233.72
2019-01-12T15:06:01.277Z,239.30
2019-01-12T15:08:57.408Z,224.85
2019-01-12T15:11:54.447Z,225.75
2019-01-12T15:14:50.451Z,228.55
2019-01-12T15:17:46.551Z,257.07
2019-01-12T15:20:42.991Z,239.68
2019-01-12T15:23:39.577Z,256.73
2019-01-12T15:26:35.475Z,251.62
2019-01-12T15:29:31.945Z,243.20
2019-01-12T15:32:29.518Z,262.02
2019-01-12T15:35:25.235Z,234.77
2019-01-12T15:38:20.817Z,242.10
2019-01-12T15:41:15.994Z,239.30
2019-01-12T15:44:11.616Z,271.52
2019-01-12T15:47:07.103Z,257.87
2019-01-12T15:50:02.864Z,267.75
2019-01-12T15:52:58.655Z,247.88
2019-01-12T15:55:54.019Z,273.00
2019-01-12T15:58:48.974Z,274.48
2019-01-12T16:01:43.594Z,265.98
2019-01-12T16:04:38.691Z,279.57
2019-01-12T16:07:33.663Z,271.20
2019-01-12T16:10:29.507Z,280.62
2019-01-12T16:13:25.431Z,279.73
2019-01-12T16:16:20.584Z,241.42
2019-01-12T16:19:15.658Z,273.68
2019-01-12T16:22:10.834Z,294.98
2019-01-12T16:25:06.576Z,270.70
2019-01-12T16:28:03.094Z,272.82
2019-01-12T16:31:00.110Z,267.40
2019-01-12T16:33:55.760Z,268.00
2019-01-12T16:36:51.252Z,242.30
2019-01-12T16:39:46.198Z,237.48
2019-01-12T16:42:41.587Z,220.45
2019-01-12T16:45:37.054Z,228.47
2019-01-12T16:48:32.328Z,212.70
2019-01-12T16:51:27.082Z,240.87
2019-01-12T16:54:24.416Z,211.40
2019-01-12T16:57:18.358Z,198.32
2019-01-12T17:00:17.577Z,195.82
2019-01-12T17:03:12.930Z,190.92
2019-01-12T17:06:08.246Z,202.57
2019-01-12T17:09:03.375Z,188.47
2019-01-12T17:11:59.470Z,181.45
2019-01-12T17:14:54.915Z,176.10
2019-01-12T17:17:50.237Z,182.75
2019-01-12T17:20:45.742Z,185.28
2019-01-12T17:23:41.035Z,191.45
2019-01-12T17:26:36.073Z,196.63
2019-01-12T17:29:31.173Z,198.53
2019-01-12T17:32:26.265Z,187.40
2019-01-12T17:35:21.135Z,182.32
2019-01-12T17:38:16.353Z,168.40
2019-01-12T17:41:10.985Z,171.05
2019-01-12T17:44:05.590Z,165.60
2019-01-12T17:47:00.206Z,163.28
2019-01-12T17:49:55.116Z,162.03
2019-01-12T17:52:50.668Z,160.35
2019-01-12T17:55:45.727Z,157.55
2019-01-12T17:58:44.613Z,162.80
2019-01-12T18:01:36.225Z,152.22
2019-01-12T18:04:31.969Z,150.32
2019-01-12T18:07:26.884Z,146.90
2019-01-12T18:10:22.045Z,127.70
2019-01-12T18:13:17.648Z,135.35
2019-01-12T18:16:12.896Z,133.22
2019-01-12T18:19:07.985Z,133.18
2019-01-12T18:22:02.889Z,140.92
2019-01-12T18:24:57.660Z,132.82
2019-01-12T18:27:52.221Z,142.30
2019-01-12T18:30:47.656Z,126.02
2019-01-12T18:33:43.244Z,131.40
2019-01-12T18:36:38.235Z,129.30
2019-01-12T18:39:33.669Z,127.38
2019-01-12T18:42:28.793Z,130.07
2019-01-12T18:45:24.466Z,123.78
2019-01-12T18:48:19.350Z,126.45
2019-01-12T18:51:14.513Z,130.30
2019-01-12T18:54:09.806Z,123.47
2019-01-12T18:57:04.853Z,132.15
2019-01-12T18:59:59.736Z,173.82
2019-01-12T19:02:54.902Z,173.43
2019-01-12T19:05:49.158Z,201.88
2019-01-12T19:08:44.438Z,166.70
2019-01-12T19:11:39.206Z,151.57
2019-01-12T19:14:34.146Z,141.00
2019-01-12T19:17:28.892Z,126.45
2019-01-12T19:20:23.668Z,128.12
2019-01-12T19:23:18.363Z,122.25
2019-01-12T19:26:13.243Z,129.12
2019-01-12T19:29:07.834Z,124.20
2019-01-12T19:32:02.906Z,127.42
2019-01-12T19:34:57.476Z,122.22
2019-01-12T19:37:52.255Z,128.15
2019-01-12T19:40:46.816Z,129.82
2019-01-12T19:43:41.638Z,123.80
2019-01-12T19:46:36.523Z,136.85
2019-01-12T19:49:31.378Z,127.62
2019-01-12T19:52:26.121Z,121.30
2019-01-12T19:55:21.006Z,131.03
2019-01-12T19:58:15.460Z,120.57
2019-01-12T20:01:09.905Z,131.70
2019-01-12T20:04:04.924Z,125.45
2019-01-12T20:06:59.471Z,117.87
2019-01-12T20:09:54.081Z,130.60
2019-01-12T20:12:48.868Z,133.35
2019-01-12T20:15:43.615Z,129.82
2019-01-12T20:18:39.459Z,133.15
2019-01-12T20:21:34.273Z,122.28
2019-01-12T20:24:28.983Z,114.22
2019-01-12T20:27:24.068Z,123.10
2019-01-12T20:30:33.586Z,119.82
2019-01-12T20:34:04.348Z,127.05
2019-01-12T20:37:51.269Z,139.28
2019-01-12T20:41:30.769Z,123.28
2019-01-12T20:44:47.181Z,119.15
2019-01-12T20:48:08.969Z,123.55
2019-01-12T20:51:35.729Z,130.72
2019-01-12T20:55:04.964Z,121.02
2019-01-12T20:58:33.281Z,124.42
2019-01-12T21:02:01.107Z,131.22
2019-01-12T21:05:28.813Z,127.75
2019-01-12T21:08:54.885Z,125.70
2019-01-12T21:12:23.280Z,126.50
2019-01-12T21:15:43.965Z,127.67
2019-01-12T21:18:38.988Z,125.53
2019-01-12T21:21:34.954Z,132.65
2019-01-12T21:24:29.704Z,118.55
2019-01-12T21:27:24.739Z,126.78
2019-01-12T21:30:20.537Z,124.53
2019-01-12T21:33:16.390Z,129.45
2019-01-12T21:36:11.732Z,128.60
2019-01-12T21:39:06.974Z,136.90
2019-01-12T21:42:01.764Z,130.00
2019-01-12T21:44:56.255Z,132.50
2019-01-12T21:47:50.733Z,123.30
2019-01-12T21:50:45.311Z,123.60
2019-01-12T21:53:40.137Z,125.05
2019-01-12T21:56:35.101Z,126.27
2019-01-12T21:59:29.615Z,124.75
2019-01-12T22:02:24.137Z,136.35
2019-01-12T22:05:18.670Z,130.32
2019-01-12T22:08:13.100Z,127.50
2019-01-12T22:11:07.578Z,126.78
2019-01-12T22:14:02.569Z,122.10
2019-01-12T22:16:58.137Z,119.15
2019-01-12T22:19:52.644Z,117.67
2019-01-12T22:22:47.235Z,120.82
2019-01-12T22:25:42.475Z,120.30
2019-01-12T22:28:37.311Z,118.02
2019-01-12T22:31:31.915Z,128.97
2019-01-12T22:34:26.700Z,123.07
2019-01-12T22:37:21.682Z,132.32
2019-01-12T22:40:19.636Z,126.87
2019-01-12T22:43:14.219Z,132.18
2019-01-12T22:46:09.154Z,128.15
2019-01-12T22:49:04.011Z,128.70
2019-01-12T22:51:58.569Z,135.93
2019-01-12T22:54:53.598Z,131.97
2019-01-12T22:57:48.288Z,132.82
2019-01-12T23:01:02.567Z,130.95
2019-01-12T23:03:56.779Z,148.45
2019-01-12T23:06:51.620Z,142.28
2019-01-12T23:09:46.579Z,147.45
2019-01-12T23:12:41.027Z,151.35
2019-01-12T23:15:35.400Z,146.95
2019-01-12T23:18:30.286Z,134.65
2019-01-12T23:21:25.365Z,126.72
2019-01-12T23:24:20.568Z,144.17
2019-01-12T23:27:15.461Z,130.07
2019-01-12T23:30:12.403Z,143.30
2019-01-12T23:33:07.207Z,138.22
2019-01-12T23:36:02.218Z,134.60
2019-01-12T23:38:56.884Z,131.55
2019-01-12T23:41:51.659Z,136.12
2019-01-12T23:44:46.399Z,143.15
2019-01-12T23:47:40.917Z,135.80
2019-01-12T23:50:35.628Z,129.18
2019-01-12T23:53:30.518Z,132.35
2019-01-12T23:56:25.054Z,136.68
2019-01-12T23:59:19.921Z,134.60
